createdAt,value
2022-10-31T00:00:24.995Z,91712.59
2022-10-31T00:02:51.290Z,91712.47
2022-10-31T00:05:17.666Z,91715.63
2022-10-31T00:07:43.981Z,91722.28
2022-10-31T00:10:10.236Z,91717.22
2022-10-31T00:12:36.612Z,91714.56
2022-10-31T00:15:02.937Z,91708.78
2022-10-31T00:17:29.204Z,91713.97
2022-10-31T00:19:55.512Z,91714.53
2022-10-31T00:22:21.788Z,91709.91
2022-10-31T00:24:48.113Z,91697.88
2022-10-31T00:27:14.395Z,91712.59
2022-10-31T00:29:40.685Z,91714.38
2022-10-31T00:32:07.012Z,91714.25
2022-10-31T00:34:33.296Z,91714.94
2022-10-31T00:36:59.601Z,91707.97
2022-10-31T00:39:25.883Z,91708.22
2022-10-31T00:41:52.163Z,91711.47
2022-10-31T00:44:18.428Z,91706.56
2022-10-31T00:46:44.713Z,91699.00
2022-10-31T00:49:10.970Z,91693.78
2022-10-31T00:51:37.286Z,91699.81
2022-10-31T00:54:03.723Z,91701.94
2022-10-31T00:56:29.980Z,91704.03
2022-10-31T00:58:56.290Z,91696.47
2022-10-31T01:01:22.692Z,91700.53
2022-10-31T01:03:49.063Z,91698.28
2022-10-31T01:06:15.405Z,91693.22
2022-10-31T01:08:41.689Z,91699.91
2022-10-31T01:11:07.966Z,91702.19
2022-10-31T01:13:34.364Z,91710.72
2022-10-31T01:16:00.782Z,91700.91
2022-10-31T01:18:27.408Z,91697.84
2022-10-31T01:21:10.152Z,91698.66
2022-10-31T01:23:36.452Z,91699.84
2022-10-31T01:26:15.929Z,91689.31
2022-10-31T01:28:49.164Z,91687.63
2022-10-31T01:31:15.621Z,91684.13
2022-10-31T01:33:41.997Z,91693.09
2022-10-31T01:36:12.489Z,91687.19
2022-10-31T01:38:38.764Z,91685.94
2022-10-31T01:41:05.098Z,91683.97
2022-10-31T01:43:42.628Z,91680.03
2022-10-31T01:46:08.892Z,91681.84
2022-10-31T01:48:35.159Z,91675.25
2022-10-31T01:51:01.484Z,91686.50
2022-10-31T01:53:27.771Z,91669.38
2022-10-31T01:55:54.041Z,91668.38
2022-10-31T01:58:21.324Z,91674.94
2022-10-31T02:00:47.894Z,91681.38
2022-10-31T02:03:14.189Z,91669.56
2022-10-31T02:05:40.464Z,91673.22
2022-10-31T02:08:25.669Z,91671.81
2022-10-31T02:10:51.996Z,91666.53
2022-10-31T02:13:18.383Z,91668.38
2022-10-31T02:15:45.154Z,91668.22
2022-10-31T02:18:11.438Z,91663.03
2022-10-31T02:20:49.752Z,91656.88
2022-10-31T02:23:15.973Z,91652.50
2022-10-31T02:25:45.218Z,91648.56
2022-10-31T02:28:11.454Z,91652.22
2022-10-31T02:30:57.987Z,91654.59
2022-10-31T02:33:25.853Z,91648.75
2022-10-31T02:35:55.111Z,91649.28
2022-10-31T02:38:27.610Z,91642.69
2022-10-31T02:41:12.789Z,91643.47
2022-10-31T02:43:47.896Z,91642.91
2022-10-31T02:46:20.708Z,91646.28
2022-10-31T02:48:47.004Z,91640.50
2022-10-31T02:51:13.423Z,91643.22
2022-10-31T02:53:39.775Z,91640.72
2022-10-31T02:56:13.338Z,91636.34
2022-10-31T02:58:46.984Z,91635.13
2022-10-31T03:01:19.345Z,91635.75
2022-10-31T03:03:58.787Z,91631.50
2022-10-31T03:06:26.926Z,91632.50
2022-10-31T03:08:58.631Z,91629.56
2022-10-31T03:11:25.303Z,91630.59
2022-10-31T03:13:58.942Z,91629.34
2022-10-31T03:16:27.887Z,91631.13
2022-10-31T03:18:58.886Z,91637.75
2022-10-31T03:21:27.202Z,91621.78
2022-10-31T03:23:53.499Z,91631.34
2022-10-31T03:26:19.786Z,91630.78
2022-10-31T03:28:47.376Z,91628.53
2022-10-31T03:31:13.913Z,91631.44
2022-10-31T03:33:41.053Z,91624.56
2022-10-31T03:36:07.842Z,91613.38
2022-10-31T03:38:34.437Z,91614.78
2022-10-31T03:41:00.884Z,91615.34
2022-10-31T03:43:28.170Z,91624.84
2022-10-31T03:45:54.532Z,91615.47
2022-10-31T03:48:20.892Z,91622.34
2022-10-31T03:50:59.528Z,91621.25
2022-10-31T03:53:32.089Z,91614.34
2022-10-31T03:56:10.435Z,91613.75
2022-10-31T03:58:42.186Z,91615.69
2022-10-31T04:01:09.141Z,91616.78
2022-10-31T04:03:35.751Z,91612.00
2022-10-31T04:06:03.348Z,91614.56
2022-10-31T04:08:30.557Z,91610.94
2022-10-31T04:10:57.121Z,91621.34
2022-10-31T04:13:25.139Z,91612.38
2022-10-31T04:15:51.618Z,91611.44
2022-10-31T04:18:17.896Z,91605.38
2022-10-31T04:20:44.188Z,91604.69
2022-10-31T04:23:15.891Z,91603.88
2022-10-31T04:25:42.159Z,91603.72
2022-10-31T04:28:08.532Z,91597.00
2022-10-31T04:30:34.956Z,91598.94
2022-10-31T04:33:01.537Z,91599.06
2022-10-31T04:35:28.093Z,91600.63
2022-10-31T04:37:54.380Z,91593.59
2022-10-31T04:40:20.689Z,91588.09
2022-10-31T04:42:46.966Z,91584.03
2022-10-31T04:45:16.819Z,91588.22
2022-10-31T04:47:46.432Z,91593.09
2022-10-31T04:50:12.704Z,91588.94
2022-10-31T04:52:42.519Z,91587.97
2022-10-31T04:55:09.018Z,91588.22
2022-10-31T04:57:44.812Z,91586.97
2022-10-31T05:00:11.377Z,91587.28
2022-10-31T05:02:47.110Z,91579.22
2022-10-31T05:05:16.803Z,91590.09
2022-10-31T05:07:43.304Z,91593.47
2022-10-31T05:10:13.021Z,91582.94
2022-10-31T05:12:39.399Z,91582.75
2022-10-31T05:15:05.911Z,91584.50
2022-10-31T05:17:32.454Z,91581.03
2022-10-31T05:19:58.786Z,91588.44
2022-10-31T05:22:25.067Z,91584.50
2022-10-31T05:24:51.488Z,91579.63
2022-10-31T05:27:17.757Z,91582.09
2022-10-31T05:29:44.026Z,91581.81
2022-10-31T05:32:10.306Z,91571.88
2022-10-31T05:34:36.679Z,91576.47
2022-10-31T05:37:02.971Z,91583.47
2022-10-31T05:39:29.456Z,91583.00
2022-10-31T05:41:55.750Z,91579.38
2022-10-31T05:44:22.081Z,91577.72
2022-10-31T05:46:48.376Z,91570.16
2022-10-31T05:49:14.730Z,91565.72
2022-10-31T05:51:41.010Z,91560.66
2022-10-31T05:54:10.699Z,91567.09
2022-10-31T05:56:38.303Z,91568.22
2022-10-31T05:59:04.584Z,91567.25
2022-10-31T06:01:30.945Z,91563.31
2022-10-31T06:03:57.269Z,91572.56
2022-10-31T06:06:23.564Z,91556.28
2022-10-31T06:08:49.834Z,91560.50
2022-10-31T06:11:16.115Z,91558.69
2022-10-31T06:13:42.436Z,91566.41
2022-10-31T06:16:08.863Z,91560.09
2022-10-31T06:18:35.117Z,91566.38
2022-10-31T06:21:01.387Z,91556.72
2022-10-31T06:23:27.667Z,91561.91
2022-10-31T06:25:53.941Z,91558.97
2022-10-31T06:28:20.221Z,91563.75
2022-10-31T06:30:46.490Z,91566.25
2022-10-31T06:33:12.818Z,91565.88
2022-10-31T06:35:39.086Z,91563.22
2022-10-31T06:38:05.666Z,91566.41
2022-10-31T06:40:32.156Z,91571.53
2022-10-31T06:42:59.184Z,91573.38
2022-10-31T06:45:25.470Z,91567.31
2022-10-31T06:48:16.214Z,91575.63
2022-10-31T06:50:41.053Z,91571.09
2022-10-31T06:53:07.423Z,91568.19
2022-10-31T06:55:33.813Z,91577.25
2022-10-31T06:58:02.987Z,91574.84
2022-10-31T07:00:30.039Z,91575.00
2022-10-31T07:02:56.870Z,91581.63
2022-10-31T07:05:23.165Z,91582.19
2022-10-31T07:07:52.684Z,91579.84
2022-10-31T07:10:18.999Z,91580.38
2022-10-31T07:12:45.286Z,91578.25
2022-10-31T07:15:11.556Z,91584.50
2022-10-31T07:17:37.872Z,91588.94
2022-10-31T07:20:04.397Z,91593.84
2022-10-31T07:22:36.582Z,91601.22
2022-10-31T07:25:02.926Z,91600.22
2022-10-31T07:27:29.244Z,91606.50
2022-10-31T07:29:55.521Z,91614.78
2022-10-31T07:32:21.789Z,91612.19
2022-10-31T07:34:48.090Z,91613.56
2022-10-31T07:37:14.359Z,91624.06
2022-10-31T07:39:40.637Z,91619.69
2022-10-31T07:42:06.903Z,91624.84
2022-10-31T07:44:33.237Z,91618.91
2022-10-31T07:46:59.513Z,91628.41
2022-10-31T07:49:26.431Z,91633.19
2022-10-31T07:51:52.733Z,91624.97
2022-10-31T07:54:19.023Z,91622.25
2022-10-31T07:56:45.341Z,91628.88
2022-10-31T07:59:11.734Z,91618.84
2022-10-31T08:01:38.064Z,91619.25
2022-10-31T08:04:04.389Z,91619.19
2022-10-31T08:06:30.713Z,91618.13
2022-10-31T08:08:56.983Z,91617.28
2022-10-31T08:11:23.270Z,91613.28
2022-10-31T08:13:49.535Z,91619.53
2022-10-31T08:16:15.792Z,91608.13
2022-10-31T08:18:42.448Z,91609.34
2022-10-31T08:21:08.705Z,91601.69
2022-10-31T08:23:34.979Z,91604.13
2022-10-31T08:26:01.299Z,91601.84
2022-10-31T08:28:27.582Z,91611.00
2022-10-31T08:30:53.850Z,91601.06
2022-10-31T08:33:20.154Z,91593.72
2022-10-31T08:35:46.463Z,91601.91
2022-10-31T08:38:13.048Z,91597.81
2022-10-31T08:40:39.449Z,91593.97
2022-10-31T08:43:12.601Z,91587.38
2022-10-31T08:45:38.879Z,91591.19
2022-10-31T08:48:05.841Z,91600.06
2022-10-31T08:50:32.925Z,91595.88
2022-10-31T08:53:25.365Z,91585.63
2022-10-31T08:55:51.651Z,91578.47
2022-10-31T08:58:18.494Z,91581.44
2022-10-31T09:00:45.190Z,91574.56
2022-10-31T09:03:19.454Z,91581.94
2022-10-31T09:05:46.604Z,91584.94
2022-10-31T09:08:16.372Z,91589.41
2022-10-31T09:10:43.208Z,91580.13
2022-10-31T09:13:13.393Z,91572.72
2022-10-31T09:15:40.264Z,91571.66
2022-10-31T09:18:06.688Z,91567.38
2022-10-31T09:20:33.162Z,91570.50
2022-10-31T09:23:00.124Z,91570.03
2022-10-31T09:25:26.523Z,91553.34
2022-10-31T09:27:55.955Z,91562.44
2022-10-31T09:30:22.304Z,91554.78
2022-10-31T09:32:48.700Z,91560.28
2022-10-31T09:35:15.863Z,91559.94
2022-10-31T09:37:43.662Z,91557.41
2022-10-31T09:40:10.096Z,91559.03
2022-10-31T09:42:39.703Z,91556.00
2022-10-31T09:45:05.956Z,91550.84
2022-10-31T09:47:50.990Z,91556.31
2022-10-31T09:50:21.627Z,91549.88
2022-10-31T09:52:54.498Z,91549.88
2022-10-31T09:55:37.225Z,91553.81
2022-10-31T09:58:03.583Z,91557.31
2022-10-31T10:00:29.977Z,91564.50
2022-10-31T10:02:57.772Z,91558.69
2022-10-31T10:05:30.638Z,91562.50
2022-10-31T10:08:17.674Z,91556.88
2022-10-31T10:10:50.290Z,91560.50
2022-10-31T10:13:20.361Z,91562.97
2022-10-31T10:15:57.179Z,91562.56
2022-10-31T10:18:42.259Z,91559.25
2022-10-31T10:21:17.824Z,91560.31
2022-10-31T10:23:44.046Z,91565.31
2022-10-31T10:26:13.022Z,91563.66
2022-10-31T10:28:39.781Z,91560.22
2022-10-31T10:31:11.231Z,91565.41
2022-10-31T10:33:42.047Z,91565.72
2022-10-31T10:36:11.129Z,91559.38
2022-10-31T10:38:57.700Z,91550.47
2022-10-31T10:41:24.346Z,91561.16
2022-10-31T10:43:51.113Z,91553.34
2022-10-31T10:46:54.811Z,91549.09
2022-10-31T10:49:38.515Z,91551.28
2022-10-31T10:52:40.872Z,91537.41
2022-10-31T10:55:12.859Z,91533.19
2022-10-31T10:57:45.577Z,91533.75
2022-10-31T11:00:32.443Z,91522.66
2022-10-31T11:02:58.718Z,91528.91
2022-10-31T11:05:36.219Z,91526.50
2022-10-31T11:08:02.493Z,91518.63
2022-10-31T11:10:28.789Z,91515.81
2022-10-31T11:13:18.488Z,91511.41
2022-10-31T11:16:04.156Z,91510.00
2022-10-31T11:18:34.059Z,91511.91
2022-10-31T11:21:01.087Z,91512.84
2022-10-31T11:23:27.973Z,91505.66
2022-10-31T11:25:58.511Z,91500.50
2022-10-31T11:28:25.019Z,91496.44
2022-10-31T11:30:52.826Z,91490.53
2022-10-31T11:33:20.370Z,91488.09
2022-10-31T11:35:47.264Z,91477.34
2022-10-31T11:38:24.112Z,91475.97
2022-10-31T11:41:00.825Z,91476.22
2022-10-31T11:43:27.350Z,91466.97
2022-10-31T11:45:53.676Z,91466.69
2022-10-31T11:48:22.510Z,91453.97
2022-10-31T11:50:52.931Z,91460.69
2022-10-31T11:53:27.041Z,91450.53
2022-10-31T11:56:04.717Z,91444.78
2022-10-31T11:58:30.982Z,91448.56
2022-10-31T12:00:57.678Z,91446.75
2022-10-31T12:03:23.960Z,91432.53
2022-10-31T12:05:51.073Z,91422.41
2022-10-31T12:08:17.378Z,91425.94
2022-10-31T12:10:43.627Z,91420.75
2022-10-31T12:13:15.497Z,91409.09
2022-10-31T12:15:43.099Z,91417.84
2022-10-31T12:18:27.862Z,91410.34
2022-10-31T12:21:09.427Z,91397.41
2022-10-31T12:23:51.438Z,91409.03
2022-10-31T12:26:25.945Z,91396.50
2022-10-31T12:29:24.757Z,91397.00
2022-10-31T12:31:59.784Z,91391.72
2022-10-31T12:34:33.594Z,91402.34
2022-10-31T12:37:09.702Z,91393.22
2022-10-31T12:39:41.965Z,91386.78
2022-10-31T12:42:27.094Z,91387.50
2022-10-31T12:44:53.335Z,91379.28
2022-10-31T12:47:34.901Z,91382.47
2022-10-31T12:50:16.514Z,91371.97
2022-10-31T12:52:53.252Z,91361.44
2022-10-31T12:55:38.533Z,91361.00
2022-10-31T12:58:14.547Z,91356.88
2022-10-31T13:00:42.016Z,91350.97
2022-10-31T13:03:20.465Z,91345.41
2022-10-31T13:05:52.027Z,91335.91
2022-10-31T13:08:18.932Z,91333.41
2022-10-31T13:10:45.173Z,91324.06
2022-10-31T13:13:19.429Z,91329.25
2022-10-31T13:15:52.780Z,91319.38
2022-10-31T13:18:23.903Z,91316.41
2022-10-31T13:20:54.649Z,91314.25
2022-10-31T13:26:22.259Z,91308.25
2022-10-31T13:31:21.485Z,91300.50
2022-10-31T13:33:47.738Z,91299.06
2022-10-31T13:36:49.570Z,91292.00
2022-10-31T13:39:21.798Z,91284.88
2022-10-31T13:41:49.393Z,91276.25
2022-10-31T13:44:24.750Z,91273.53
2022-10-31T13:46:51.259Z,91268.22
2022-10-31T13:49:29.546Z,91273.84
2022-10-31T13:52:11.149Z,91263.41
2022-10-31T13:54:37.369Z,91261.31
2022-10-31T13:57:07.224Z,91256.56
2022-10-31T13:59:33.861Z,91247.34
2022-10-31T14:02:01.774Z,91252.47
2022-10-31T14:04:34.056Z,91254.19
2022-10-31T14:07:07.283Z,91252.31
2022-10-31T14:09:40.540Z,91256.25
2022-10-31T14:12:08.277Z,91255.78
2022-10-31T14:14:36.555Z,91259.22
2022-10-31T14:17:02.850Z,91254.59
2022-10-31T14:19:29.172Z,91251.81
2022-10-31T14:21:55.464Z,91257.56
2022-10-31T14:24:24.720Z,91252.25
2022-10-31T14:26:54.159Z,91253.03
2022-10-31T14:29:22.117Z,91248.69
2022-10-31T14:31:55.577Z,91257.41
2022-10-31T14:34:32.933Z,91258.34
2022-10-31T14:37:02.235Z,91261.44
2022-10-31T14:39:33.101Z,91258.91
2022-10-31T14:42:02.438Z,91260.66
2022-10-31T14:44:28.643Z,91254.53
2022-10-31T14:47:07.262Z,91257.03
2022-10-31T14:49:58.952Z,91259.19
2022-10-31T14:52:25.375Z,91253.50
2022-10-31T14:54:53.483Z,91260.22
2022-10-31T14:57:27.263Z,91260.06
2022-10-31T14:59:57.968Z,91254.69
2022-10-31T15:02:31.593Z,91257.78
2022-10-31T15:04:58.388Z,91255.69
2022-10-31T15:07:25.428Z,91264.66
2022-10-31T15:09:57.738Z,91268.47
2022-10-31T15:12:25.397Z,91273.91
2022-10-31T15:14:51.703Z,91271.84
2022-10-31T15:17:18.037Z,91269.19
2022-10-31T15:19:44.319Z,91273.00
2022-10-31T15:22:11.550Z,91272.00
2022-10-31T15:24:38.342Z,91274.19
2022-10-31T15:27:05.351Z,91268.72
2022-10-31T15:29:31.825Z,91269.75
2022-10-31T15:31:59.469Z,91273.31
2022-10-31T15:34:38.867Z,91280.84
2022-10-31T15:37:05.334Z,91275.38
2022-10-31T15:39:31.618Z,91278.78
2022-10-31T15:41:58.356Z,91275.06
2022-10-31T15:44:37.541Z,91278.81
2022-10-31T15:47:19.789Z,91282.88
2022-10-31T15:49:52.991Z,91276.03
2022-10-31T15:52:25.483Z,91273.28
2022-10-31T15:54:52.828Z,91280.13
2022-10-31T15:57:19.126Z,91273.34
2022-10-31T15:59:48.136Z,91274.19
2022-10-31T16:02:14.796Z,91280.72
2022-10-31T16:05:10.644Z,91278.38
2022-10-31T16:07:36.926Z,91279.75
2022-10-31T16:10:04.006Z,91280.38
2022-10-31T16:12:33.387Z,91298.25
2022-10-31T16:14:59.706Z,91290.75
2022-10-31T16:17:26.469Z,91290.25
2022-10-31T16:19:59.956Z,91295.81
2022-10-31T16:22:28.430Z,91292.22
2022-10-31T16:25:09.643Z,91293.28
2022-10-31T16:27:36.105Z,91301.06
2022-10-31T16:30:05.029Z,91305.13
2022-10-31T16:32:31.338Z,91312.34
2022-10-31T16:35:10.149Z,91313.91
2022-10-31T16:37:39.826Z,91312.22
2022-10-31T16:40:06.261Z,91314.31
2022-10-31T16:42:32.590Z,91305.00
2022-10-31T16:44:59.311Z,91319.59
2022-10-31T16:47:28.438Z,91327.09
2022-10-31T16:49:55.078Z,91325.34
2022-10-31T16:52:21.372Z,91328.97
2022-10-31T16:54:47.635Z,91334.50
2022-10-31T16:57:17.135Z,91341.81
2022-10-31T16:59:43.491Z,91342.47
2022-10-31T17:02:12.250Z,91343.94
2022-10-31T17:04:38.622Z,91349.75
2022-10-31T17:07:04.913Z,91353.25
2022-10-31T17:09:33.997Z,91348.13
2022-10-31T17:12:00.292Z,91358.63
2022-10-31T17:14:26.689Z,91358.88
2022-10-31T17:16:52.957Z,91364.19
2022-10-31T17:19:19.256Z,91361.03
2022-10-31T17:21:45.532Z,91372.31
2022-10-31T17:24:15.095Z,91370.09
2022-10-31T17:26:41.534Z,91371.53
2022-10-31T17:29:07.879Z,91370.50
2022-10-31T17:31:36.463Z,91377.69
2022-10-31T17:34:05.027Z,91373.00
2022-10-31T17:36:31.542Z,91370.59
2022-10-31T17:38:58.014Z,91376.38
2022-10-31T17:41:24.293Z,91382.94
2022-10-31T17:43:54.909Z,91385.59
2022-10-31T17:46:21.186Z,91387.38
2022-10-31T17:48:47.555Z,91394.22
2022-10-31T17:51:13.825Z,91393.31
2022-10-31T17:53:40.141Z,91401.16
2022-10-31T17:56:07.186Z,91396.53
2022-10-31T17:58:34.159Z,91394.91
2022-10-31T18:01:00.515Z,91407.00
2022-10-31T18:03:26.956Z,91394.22
2022-10-31T18:05:53.893Z,91402.81
2022-10-31T18:08:20.159Z,91412.16
2022-10-31T18:10:46.438Z,91415.81
2022-10-31T18:13:12.695Z,91417.94
2022-10-31T18:15:39.447Z,91417.16
2022-10-31T18:18:07.158Z,91410.28
2022-10-31T18:20:33.425Z,91409.06
2022-10-31T18:22:59.735Z,91404.00
2022-10-31T18:25:26.013Z,91400.56
2022-10-31T18:27:52.283Z,91404.69
2022-10-31T18:30:18.709Z,91400.22
2022-10-31T18:32:44.977Z,91395.22
2022-10-31T18:35:11.250Z,91391.69
2022-10-31T18:37:37.530Z,91395.50
2022-10-31T18:40:03.982Z,91386.59
2022-10-31T18:42:30.259Z,91398.06
2022-10-31T18:44:56.561Z,91402.28
2022-10-31T18:47:22.992Z,91402.47
2022-10-31T18:49:49.256Z,91398.31
2022-10-31T18:52:15.559Z,91403.34
2022-10-31T18:54:41.823Z,91401.44
2022-10-31T18:57:08.101Z,91402.91
2022-10-31T18:59:34.371Z,91401.66
2022-10-31T19:02:00.893Z,91400.34
2022-10-31T19:04:27.294Z,91402.66
2022-10-31T19:06:54.453Z,91403.72
2022-10-31T19:09:21.260Z,91404.84
2022-10-31T19:11:47.521Z,91402.72
2022-10-31T19:14:14.655Z,91396.50
2022-10-31T19:16:40.965Z,91384.75
2022-10-31T19:19:07.214Z,91391.47
2022-10-31T19:21:33.542Z,91395.97
2022-10-31T19:23:59.958Z,91396.22
2022-10-31T19:26:26.396Z,91395.84
2022-10-31T19:28:52.661Z,91386.44
2022-10-31T19:31:18.944Z,91391.03
2022-10-31T19:33:45.590Z,91379.59
2022-10-31T19:36:13.305Z,91387.91
2022-10-31T19:38:40.695Z,91389.06
2022-10-31T19:41:08.007Z,91383.16
2022-10-31T19:43:34.440Z,91386.91
2022-10-31T19:46:01.288Z,91382.44
2022-10-31T19:48:27.621Z,91391.25
2022-10-31T19:50:58.496Z,91384.78
2022-10-31T19:53:24.944Z,91386.72
2022-10-31T19:55:51.213Z,91388.19
2022-10-31T19:58:17.905Z,91381.28
2022-10-31T20:00:44.429Z,91381.50
2022-10-31T20:03:12.219Z,91382.81
2022-10-31T20:05:42.058Z,91393.41
2022-10-31T20:08:09.239Z,91389.56
2022-10-31T20:10:35.535Z,91387.13
2022-10-31T20:13:02.362Z,91385.66
2022-10-31T20:15:28.861Z,91391.72
2022-10-31T20:17:55.145Z,91392.34
2022-10-31T20:20:21.419Z,91394.50
2022-10-31T20:22:49.674Z,91390.44
2022-10-31T20:25:15.943Z,91397.25
2022-10-31T20:27:42.224Z,91396.28
2022-10-31T20:30:08.655Z,91393.59
2022-10-31T20:32:34.920Z,91393.03
2022-10-31T20:35:01.205Z,91398.34
2022-10-31T20:37:27.472Z,91391.59
2022-10-31T20:39:55.772Z,91404.22
2022-10-31T20:42:23.780Z,91394.19
2022-10-31T20:44:50.074Z,91393.81
2022-10-31T20:47:17.203Z,91399.88
2022-10-31T20:49:44.793Z,91393.97
2022-10-31T20:52:11.088Z,91395.91
2022-10-31T20:54:37.342Z,91406.47
2022-10-31T20:57:03.633Z,91395.34
2022-10-31T20:59:29.899Z,91396.19
2022-10-31T21:01:56.312Z,91408.63
2022-10-31T21:04:22.844Z,91411.28
2022-10-31T21:06:49.747Z,91411.91
2022-10-31T21:09:17.404Z,91412.25
2022-10-31T21:11:43.823Z,91415.91
2022-10-31T21:14:10.279Z,91415.69
2022-10-31T21:16:36.815Z,91409.69
2022-10-31T21:19:03.349Z,91404.50
2022-10-31T21:21:32.548Z,91416.03
2022-10-31T21:24:00.167Z,91417.66
2022-10-31T21:26:26.846Z,91407.22
2022-10-31T21:28:53.803Z,91406.78
2022-10-31T21:31:20.081Z,91411.78
2022-10-31T21:33:46.380Z,91414.59
2022-10-31T21:36:12.841Z,91407.91
2022-10-31T21:38:39.231Z,91414.78
2022-10-31T21:41:05.516Z,91401.03
2022-10-31T21:43:31.790Z,91407.22
2022-10-31T21:46:08.060Z,91407.59
2022-10-31T21:48:34.792Z,91412.94
2022-10-31T21:51:02.441Z,91409.00
2022-10-31T21:53:47.197Z,91415.28
2022-10-31T21:56:13.565Z,91426.59
2022-10-31T21:58:39.920Z,91417.63
2022-10-31T22:01:06.300Z,91415.31
2022-10-31T22:03:38.965Z,91420.56
2022-10-31T22:06:05.772Z,91411.59
2022-10-31T22:08:32.054Z,91425.75
2022-10-31T22:11:01.705Z,91416.72
2022-10-31T22:13:29.501Z,91428.66
2022-10-31T22:15:59.391Z,91418.00
2022-10-31T22:18:25.713Z,91421.06
2022-10-31T22:20:52.002Z,91413.25
2022-10-31T22:23:18.280Z,91409.19
2022-10-31T22:25:44.563Z,91422.22
2022-10-31T22:28:10.842Z,91429.13
2022-10-31T22:30:37.607Z,91412.94
2022-10-31T22:33:04.470Z,91416.09
2022-10-31T22:35:30.983Z,91418.13
2022-10-31T22:37:57.254Z,91421.06
2022-10-31T22:40:23.532Z,91420.66
2022-10-31T22:42:49.811Z,91421.50
2022-10-31T22:45:16.173Z,91422.53
2022-10-31T22:47:42.454Z,91418.78
2022-10-31T22:50:08.778Z,91416.72
2022-10-31T22:52:35.055Z,91416.63
2022-10-31T22:55:01.319Z,91412.19
2022-10-31T22:57:27.666Z,91400.88
2022-10-31T22:59:54.497Z,91408.75
2022-10-31T23:02:20.936Z,91397.19
2022-10-31T23:04:47.344Z,91404.94
2022-10-31T23:07:14.818Z,91410.72
2022-10-31T23:09:42.280Z,91412.22
2022-10-31T23:12:27.093Z,91405.78
2022-10-31T23:14:53.383Z,91405.09
2022-10-31T23:17:19.657Z,91404.34
2022-10-31T23:19:45.928Z,91404.56
2022-10-31T23:22:12.348Z,91410.13
2022-10-31T23:24:39.277Z,91406.25
2022-10-31T23:27:11.566Z,91400.34
2022-10-31T23:29:39.079Z,91401.66
2022-10-31T23:32:06.084Z,91394.13
2022-10-31T23:34:32.396Z,91394.13
2022-10-31T23:36:58.761Z,91387.06
2022-10-31T23:39:25.296Z,91390.75
2022-10-31T23:41:51.645Z,91390.34
2022-10-31T23:44:17.921Z,91382.38
2022-10-31T23:46:44.220Z,91389.19
2022-10-31T23:49:10.518Z,91395.22
2022-10-31T23:51:36.799Z,91396.06
2022-10-31T23:54:03.078Z,91386.19
2022-10-31T23:56:29.452Z,91391.53
2022-10-31T23:58:55.711Z,91389.00
